Pagina principală
METAR-TAF:

METAR-TAF

Aeroporturi :

Lancaster Airport

Lancaster, Texas, Statele Unite ale Americii

Latitudine: 32-34-45N, longitudine: 096-43-08W, elevație: 153 m

Observații meteo curente

Raportul a fost făcut în urmă cu 26 de minute, la 22:55 UTC
Vânt 5 kt de la Sud
Temperatură 35°C
Umiditate 44%
Presiune 1015 hPa
Vizibilitate: 16.1 km
Nori împrăștiați la o înălțime de 6000 picior

METAR: KLNC 222255Z AUTO 18005KT 10SM SCT060 35/21 A2997 RMK AO2 T03450205

Ora: 18:21 (23:21 UTC)


TAF: lipsă

Observații și prognoze meteo pentru peste 4.000 de aeroporturi (rapoarte METAR și TAF).

Stațiile disponibile sunt reprezentate pe hartă prin puncte galbene și roșii.

Țineți indicatorul mouse-ului pe punctul dorit pentru a vedea denumirea stației.

Apoi, faceți clic pentru a vedea observațiile și prognozele meteorologice.

Pentru a schimba harta: Pentru mărire, faceți clic pe butoanele verzi cu cruce neagră; pentru micșorare, pe butonul verde cu o liniuță; pentru hărți învecinate, pe săgețile verzi.


METAR-TAF: